Time;durP1;ratioP1;P1;durP2;ratioP2;P2;SDS_P1;SDS_P2;PMS_P1;PMS_P2;Temp;Humidity;BMP_temperature;BMP_pressure;BME280_temperature;BME280_humidity;BME280_pressure;Samples;Min_cycle;Max_cycle;Signal;HPM_P1;HPM_P2
2021/07/28 00:00:53;;;;;;;2.88;1.75;;;;;;;;;;5052246;28;20101;-80
2021/07/28 00:03:19;;;;;;;2.72;1.48;;;;;;;;;;5052041;28;20484;-81
2021/07/28 00:05:46;;;;;;;4.10;1.02;;;;;;;;;;5052090;28;20037;-80
2021/07/28 00:08:13;;;;;;;3.83;1.70;;;;;;;;;;5051856;28;20052;-80
2021/07/28 00:10:40;;;;;;;1.90;1.30;;;;;;;;;;5052044;28;20049;-80
2021/07/28 00:13:06;;;;;;;3.83;1.63;;;;;;;;;;5052367;28;20094;-80
2021/07/28 00:15:33;;;;;;;5.03;1.80;;;;;;;;;;5052234;28;20095;-80
2021/07/28 00:18:03;;;;;;;4.85;1.70;;;;;;;;;;5052208;28;20059;-80
2021/07/28 00:23:12;;;;;;;2.55;1.25;;;;;;;;;;5051041;28;20127;-80
2021/07/28 00:23:17;;;;;;;5.28;1.73;;;;;;;;;;5052095;28;20048;-80
2021/07/28 00:25:44;;;;;;;2.83;1.63;;;;;;;;;;5051975;28;20127;-80
2021/07/28 00:28:11;;;;;;;6.00;3.22;;;;;;;;;;5051924;28;20048;-80
2021/07/28 00:30:38;;;;;;;5.15;2.67;;;;;;;;;;5051984;28;20469;-80
2021/07/28 00:33:04;;;;;;;2.95;1.55;;;;;;;;;;5051522;28;20051;-82
2021/07/28 00:35:31;;;;;;;1.90;1.40;;;;;;;;;;5051350;28;20095;-81
2021/07/28 00:38:02;;;;;;;5.07;1.98;;;;;;;;;;5051850;28;20045;-80
2021/07/28 00:40:30;;;;;;;3.17;1.15;;;;;;;;;;5051915;28;20052;-80
2021/07/28 00:43:08;;;;;;;3.50;1.60;;;;;;;;;;5051027;28;20049;-80
2021/07/28 00:45:34;;;;;;;3.20;1.10;;;;;;;;;;5056776;28;20389;-80
2021/07/28 00:48:01;;;;;;;7.63;3.10;;;;;;;;;;5056257;28;20044;-80
2021/07/28 00:50:27;;;;;;;4.07;2.28;;;;;;;;;;5059658;28;20112;-81
2021/07/28 00:52:54;;;;;;;2.83;2.20;;;;;;;;;;5061447;28;20041;-81
2021/07/28 00:55:21;;;;;;;4.68;1.85;;;;;;;;;;5051367;28;20036;-81
2021/07/28 00:57:49;;;;;;;3.17;1.27;;;;;;;;;;5051534;28;20052;-80
2021/07/28 01:00:15;;;;;;;3.75;2.05;;;;;;;;;;5051301;28;20480;-80
2021/07/28 01:02:42;;;;;;;5.40;1.73;;;;;;;;;;5051406;28;20103;-81
2021/07/28 01:05:09;;;;;;;3.33;2.17;;;;;;;;;;5051393;28;20100;-80
2021/07/28 01:07:35;;;;;;;8.30;1.30;;;;;;;;;;5051377;28;20041;-81
2021/07/28 01:10:02;;;;;;;2.20;1.20;;;;;;;;;;5051254;28;20513;-81
2021/07/28 01:12:31;;;;;;;2.90;1.98;;;;;;;;;;5051128;28;20523;-81
2021/07/28 01:14:59;;;;;;;2.35;1.50;;;;;;;;;;5051164;28;20467;-80
2021/07/28 01:17:25;;;;;;;2.35;1.95;;;;;;;;;;5050958;28;20037;-81
2021/07/28 01:19:56;;;;;;;2.53;1.30;;;;;;;;;;5050454;28;20041;-80
2021/07/28 01:22:23;;;;;;;3.83;1.48;;;;;;;;;;5050930;28;20563;-81
2021/07/28 01:24:51;;;;;;;5.60;1.30;;;;;;;;;;5050969;28;20037;-81
2021/07/28 01:27:18;;;;;;;3.55;2.22;;;;;;;;;;5050763;28;20041;-81
2021/07/28 01:29:44;;;;;;;1.77;1.48;;;;;;;;;;5050798;28;20124;-80
2021/07/28 01:32:11;;;;;;;1.85;0.90;;;;;;;;;;5050886;28;20090;-80
2021/07/28 01:34:38;;;;;;;4.45;3.00;;;;;;;;;;5051008;28;20037;-80
2021/07/28 01:37:05;;;;;;;2.78;1.38;;;;;;;;;;5050828;28;20087;-81
2021/07/28 01:39:33;;;;;;;2.60;1.60;;;;;;;;;;5050689;28;20049;-81
2021/07/28 01:42:01;;;;;;;2.15;1.02;;;;;;;;;;5050588;28;20542;-81
2021/07/28 01:44:27;;;;;;;2.58;1.75;;;;;;;;;;5050869;28;20053;-80
2021/07/28 01:46:54;;;;;;;4.05;1.55;;;;;;;;;;5050901;28;20397;-81
2021/07/28 01:49:20;;;;;;;2.55;1.50;;;;;;;;;;5050652;28;20053;-80
2021/07/28 01:51:47;;;;;;;2.97;1.90;;;;;;;;;;5050730;28;20049;-81
2021/07/28 01:54:14;;;;;;;3.42;1.10;;;;;;;;;;5050683;28;20392;-80
2021/07/28 01:56:43;;;;;;;3.95;1.40;;;;;;;;;;5050471;28;20041;-81
2021/07/28 01:59:11;;;;;;;2.78;1.80;;;;;;;;;;5050500;28;20044;-81
2021/07/28 02:01:38;;;;;;;2.20;1.35;;;;;;;;;;5050671;28;20392;-81
2021/07/28 02:04:05;;;;;;;2.00;0.93;;;;;;;;;;5050588;28;20049;-81
2021/07/28 02:06:33;;;;;;;6.20;2.47;;;;;;;;;;5050438;28;20041;-80
2021/07/28 02:08:59;;;;;;;1.55;1.00;;;;;;;;;;5050471;28;20445;-80
2021/07/28 02:11:26;;;;;;;3.65;1.55;;;;;;;;;;5047817;28;20417;-80
2021/07/28 02:13:52;;;;;;;1.95;1.08;;;;;;;;;;5050553;28;20040;-80
2021/07/28 02:16:20;;;;;;;4.10;1.98;;;;;;;;;;5050617;28;20053;-80
2021/07/28 02:18:47;;;;;;;3.97;2.90;;;;;;;;;;5050385;28;20477;-80
2021/07/28 02:21:13;;;;;;;3.00;1.67;;;;;;;;;;5050396;28;20037;-80
2021/07/28 02:23:41;;;;;;;5.03;2.30;;;;;;;;;;5050193;28;20060;-80
2021/07/28 02:26:07;;;;;;;3.60;2.15;;;;;;;;;;5050213;28;20499;-81
2021/07/28 02:28:34;;;;;;;4.10;1.73;;;;;;;;;;5050275;28;20049;-81
2021/07/28 02:31:00;;;;;;;2.90;1.48;;;;;;;;;;5051223;28;20052;-81
2021/07/28 02:33:28;;;;;;;3.67;1.50;;;;;;;;;;5054085;28;20473;-80
2021/07/28 02:35:55;;;;;;;2.08;1.25;;;;;;;;;;5054103;28;20107;-81
2021/07/28 02:38:21;;;;;;;5.28;1.45;;;;;;;;;;5053923;28;20057;-81
2021/07/28 02:40:48;;;;;;;2.00;1.38;;;;;;;;;;5053861;28;20048;-81
2021/07/28 02:43:14;;;;;;;4.03;2.88;;;;;;;;;;5053978;28;20083;-80
2021/07/28 02:45:41;;;;;;;3.15;1.35;;;;;;;;;;5053863;28;21120;-81
2021/07/28 02:48:07;;;;;;;2.60;1.83;;;;;;;;;;5053911;28;20049;-80
2021/07/28 02:50:35;;;;;;;2.58;1.42;;;;;;;;;;5053740;28;20049;-80
2021/07/28 02:53:02;;;;;;;2.28;1.45;;;;;;;;;;5053659;28;20048;-81
2021/07/28 02:55:29;;;;;;;2.22;1.50;;;;;;;;;;5053891;28;20049;-81
2021/07/28 02:57:55;;;;;;;2.42;1.67;;;;;;;;;;5053782;28;20056;-81
2021/07/28 03:00:22;;;;;;;2.97;1.10;;;;;;;;;;5053591;28;20037;-80
2021/07/28 03:02:48;;;;;;;4.32;1.88;;;;;;;;;;5053555;28;20473;-81
2021/07/28 03:05:15;;;;;;;4.57;2.17;;;;;;;;;;5053363;28;20044;-80
2021/07/28 03:07:43;;;;;;;3.42;1.90;;;;;;;;;;5053711;28;20136;-80
2021/07/28 03:10:10;;;;;;;5.78;2.40;;;;;;;;;;5053771;28;20128;-80
2021/07/28 03:12:36;;;;;;;3.53;2.85;;;;;;;;;;5053379;28;20082;-80
2021/07/28 03:15:03;;;;;;;2.42;1.63;;;;;;;;;;5053283;28;20044;-80
2021/07/28 03:17:29;;;;;;;2.65;1.63;;;;;;;;;;5053397;28;20041;-81
2021/07/28 03:19:56;;;;;;;3.92;1.73;;;;;;;;;;5053101;28;20057;-80
2021/07/28 03:22:24;;;;;;;2.40;1.33;;;;;;;;;;5053097;28;20040;-81
2021/07/28 03:24:52;;;;;;;9.95;2.55;;;;;;;;;;5053167;28;20394;-81
2021/07/28 03:27:18;;;;;;;2.47;2.00;;;;;;;;;;5053257;28;20045;-81
2021/07/28 03:29:45;;;;;;;5.60;1.63;;;;;;;;;;5053112;28;20102;-82
2021/07/28 03:32:11;;;;;;;4.00;2.35;;;;;;;;;;5053136;28;20029;-81
2021/07/28 03:34:38;;;;;;;5.22;2.90;;;;;;;;;;5052921;28;20110;-81
2021/07/28 03:37:05;;;;;;;5.60;3.22;;;;;;;;;;5052907;28;20044;-81
2021/07/28 03:39:31;;;;;;;2.67;1.77;;;;;;;;;;5052787;28;20048;-81
2021/07/28 03:41:59;;;;;;;2.90;1.92;;;;;;;;;;5052510;28;20056;-81
2021/07/28 03:44:26;;;;;;;2.30;1.23;;;;;;;;;;5052645;28;20048;-81
2021/07/28 03:46:52;;;;;;;3.05;1.98;;;;;;;;;;5052712;28;20041;-81
2021/07/28 03:49:19;;;;;;;3.80;2.13;;;;;;;;;;5052670;28;20053;-81
2021/07/28 03:51:45;;;;;;;11.38;3.33;;;;;;;;;;5052909;28;20075;-81
2021/07/28 03:54:12;;;;;;;2.72;2.08;;;;;;;;;;5052824;28;20084;-81
2021/07/28 03:56:38;;;;;;;2.63;1.73;;;;;;;;;;5053028;28;20045;-82
2021/07/28 03:59:06;;;;;;;4.28;2.20;;;;;;;;;;5052622;28;20041;-81
2021/07/28 04:01:33;;;;;;;1.95;1.10;;;;;;;;;;5052302;28;20095;-81
2021/07/28 04:03:59;;;;;;;2.47;1.20;;;;;;;;;;5052324;28;20049;-81
2021/07/28 04:06:26;;;;;;;4.40;2.17;;;;;;;;;;5052370;28;20045;-81
2021/07/28 04:08:52;;;;;;;2.72;1.58;;;;;;;;;;5052430;28;20049;-81
2021/07/28 04:11:19;;;;;;;2.60;2.00;;;;;;;;;;5052181;28;20469;-82
2021/07/28 04:13:45;;;;;;;6.60;3.85;;;;;;;;;;5052239;28;20123;-81
2021/07/28 04:16:14;;;;;;;2.05;1.80;;;;;;;;;;5052050;28;20499;-81
2021/07/28 04:18:41;;;;;;;5.25;2.78;;;;;;;;;;5052240;28;20037;-81
2021/07/28 04:21:07;;;;;;;4.93;2.95;;;;;;;;;;5052020;28;20084;-81
2021/07/28 04:23:34;;;;;;;3.95;1.92;;;;;;;;;;5051923;28;20045;-81
2021/07/28 04:26:00;;;;;;;6.55;2.40;;;;;;;;;;5051934;28;20060;-81
2021/07/28 04:28:27;;;;;;;1.85;1.10;;;;;;;;;;5051908;28;20087;-82
2021/07/28 04:30:53;;;;;;;2.88;1.40;;;;;;;;;;5051835;28;20045;-81
2021/07/28 04:33:22;;;;;;;6.35;2.67;;;;;;;;;;5051811;28;20496;-80
2021/07/28 04:35:48;;;;;;;6.30;3.78;;;;;;;;;;5051826;28;20041;-81
2021/07/28 04:38:15;;;;;;;2.72;2.05;;;;;;;;;;5051783;28;20482;-81
2021/07/28 04:40:41;;;;;;;5.75;2.88;;;;;;;;;;5051770;28;20430;-82
2021/07/28 04:43:08;;;;;;;5.95;3.58;;;;;;;;;;5051329;28;20053;-81
2021/07/28 04:45:34;;;;;;;3.90;2.80;;;;;;;;;;5051593;28;20625;-81
2021/07/28 04:48:01;;;;;;;6.47;2.80;;;;;;;;;;5051925;28;20041;-80
2021/07/28 04:50:29;;;;;;;8.63;3.58;;;;;;;;;;5051659;28;20052;-80
2021/07/28 04:52:55;;;;;;;5.15;3.80;;;;;;;;;;5051049;28;20489;-81
2021/07/28 04:55:22;;;;;;;6.47;2.83;;;;;;;;;;5051129;28;20091;-81
2021/07/28 04:57:48;;;;;;;5.97;3.08;;;;;;;;;;5051377;28;20041;-81
2021/07/28 05:00:15;;;;;;;4.47;2.42;;;;;;;;;;5051485;28;20439;-80
2021/07/28 05:02:41;;;;;;;7.22;2.47;;;;;;;;;;5051382;28;20512;-81
2021/07/28 05:05:08;;;;;;;6.03;2.55;;;;;;;;;;5051389;28;20049;-81
2021/07/28 05:07:36;;;;;;;3.88;2.15;;;;;;;;;;5051329;28;20526;-80
2021/07/28 05:10:03;;;;;;;8.88;2.92;;;;;;;;;;5051180;28;20041;-80
2021/07/28 05:12:29;;;;;;;3.33;2.40;;;;;;;;;;5051035;28;20440;-80
2021/07/28 05:14:57;;;;;;;6.25;2.15;;;;;;;;;;5051220;28;20186;-81
2021/07/28 05:17:24;;;;;;;3.08;1.75;;;;;;;;;;5051039;28;20091;-81
2021/07/28 05:19:51;;;;;;;2.85;1.67;;;;;;;;;;5051006;28;20044;-81
2021/07/28 05:22:17;;;;;;;4.20;2.47;;;;;;;;;;5051068;28;20045;-80
2021/07/28 05:24:45;;;;;;;5.88;2.33;;;;;;;;;;5048001;28;20053;-81
2021/07/28 05:27:12;;;;;;;5.30;2.55;;;;;;;;;;5050828;28;20484;-81
2021/07/28 05:29:38;;;;;;;2.38;1.67;;;;;;;;;;5051117;28;20048;-80
2021/07/28 05:32:05;;;;;;;3.28;2.42;;;;;;;;;;5050863;28;20044;-80
2021/07/28 05:34:31;;;;;;;3.42;2.33;;;;;;;;;;5050955;28;20045;-81
2021/07/28 05:36:58;;;;;;;5.75;1.95;;;;;;;;;;5050869;28;20515;-80
2021/07/28 05:39:25;;;;;;;5.63;2.40;;;;;;;;;;5050623;28;20424;-81
2021/07/28 05:41:54;;;;;;;5.60;1.75;;;;;;;;;;5050715;28;20049;-80
2021/07/28 05:44:20;;;;;;;3.65;2.38;;;;;;;;;;5050699;28;20048;-80
2021/07/28 05:46:47;;;;;;;4.95;2.22;;;;;;;;;;5050655;28;20481;-80
2021/07/28 05:49:13;;;;;;;2.42;1.75;;;;;;;;;;5050715;28;20045;-80
2021/07/28 05:51:40;;;;;;;6.72;3.20;;;;;;;;;;5050639;28;20056;-81
2021/07/28 05:54:06;;;;;;;4.75;2.33;;;;;;;;;;5050446;28;20041;-80
2021/07/28 05:56:33;;;;;;;3.83;1.90;;;;;;;;;;5050052;28;20041;-81
2021/07/28 05:59:01;;;;;;;6.05;3.58;;;;;;;;;;5050074;28;20060;-81
2021/07/28 06:01:27;;;;;;;9.93;5.07;;;;;;;;;;5049993;28;20052;-80
2021/07/28 06:03:54;;;;;;;8.00;3.35;;;;;;;;;;5049252;28;20045;-80
2021/07/28 06:06:20;;;;;;;8.68;2.97;;;;;;;;;;5053379;28;20041;-79
2021/07/28 06:08:47;;;;;;;8.43;3.78;;;;;;;;;;5048497;28;20051;-80
2021/07/28 06:11:13;;;;;;;9.38;4.68;;;;;;;;;;5053930;28;20484;-80
2021/07/28 06:13:40;;;;;;;15.77;6.03;;;;;;;;;;5054100;28;20094;-80
2021/07/28 06:16:07;;;;;;;7.35;4.72;;;;;;;;;;5054561;28;20094;-81
2021/07/28 06:18:34;;;;;;;9.50;4.15;;;;;;;;;;5054356;28;20052;-81
2021/07/28 06:21:01;;;;;;;5.72;4.03;;;;;;;;;;5050479;28;20116;-81
2021/07/28 06:23:27;;;;;;;9.75;4.30;;;;;;;;;;5054076;28;20048;-80
2021/07/28 06:25:54;;;;;;;6.97;3.78;;;;;;;;;;5054181;28;20041;-80
2021/07/28 06:28:20;;;;;;;6.07;3.08;;;;;;;;;;5054109;28;20048;-79
2021/07/28 06:30:49;;;;;;;9.68;3.58;;;;;;;;;;5054119;28;20099;-80
2021/07/28 06:33:17;;;;;;;5.53;2.92;;;;;;;;;;5054178;28;20533;-79
2021/07/28 06:35:43;;;;;;;8.00;3.92;;;;;;;;;;5053955;28;20098;-79
2021/07/28 06:38:10;;;;;;;4.90;2.83;;;;;;;;;;5054229;28;20439;-79
2021/07/28 06:40:36;;;;;;;7.80;3.85;;;;;;;;;;5053857;28;20041;-80
2021/07/28 06:43:03;;;;;;;3.25;2.08;;;;;;;;;;5054139;28;20123;-80
2021/07/28 06:45:30;;;;;;;4.10;2.63;;;;;;;;;;5053779;28;20480;-80
2021/07/28 06:47:56;;;;;;;5.82;2.85;;;;;;;;;;5053826;28;20040;-79
2021/07/28 06:50:24;;;;;;;5.53;3.42;;;;;;;;;;5053676;28;20044;-80
2021/07/28 06:52:50;;;;;;;7.32;4.53;;;;;;;;;;5053704;28;20049;-80
2021/07/28 06:55:17;;;;;;;8.70;4.60;;;;;;;;;;5053751;28;20049;-80
2021/07/28 06:57:44;;;;;;;6.93;3.95;;;;;;;;;;5053803;28;20045;-76
2021/07/28 07:00:11;;;;;;;9.52;4.95;;;;;;;;;;5053665;28;20037;-80
2021/07/28 07:02:37;;;;;;;3.78;2.78;;;;;;;;;;5053557;28;20045;-79
2021/07/28 07:05:04;;;;;;;5.80;4.07;;;;;;;;;;5053290;28;20045;-79
2021/07/28 07:07:32;;;;;;;7.95;3.70;;;;;;;;;;5053094;28;20041;-79
2021/07/28 07:09:59;;;;;;;5.88;4.25;;;;;;;;;;5053489;28;20508;-81
2021/07/28 07:12:25;;;;;;;7.95;5.10;;;;;;;;;;5053534;28;20048;-80
2021/07/28 07:14:52;;;;;;;8.38;4.00;;;;;;;;;;5053369;28;20045;-80
2021/07/28 07:17:18;;;;;;;9.95;4.38;;;;;;;;;;5052407;28;20041;-80
2021/07/28 07:19:44;;;;;;;4.90;3.92;;;;;;;;;;5053496;28;20098;-80
2021/07/28 07:22:11;;;;;;;5.00;3.63;;;;;;;;;;5053464;28;20037;-80
2021/07/28 07:24:39;;;;;;;12.10;5.07;;;;;;;;;;5053131;28;20044;-79
2021/07/28 07:27:05;;;;;;;8.60;4.95;;;;;;;;;;5053170;28;20128;-80
2021/07/28 07:29:33;;;;;;;8.05;3.83;;;;;;;;;;5053171;28;20041;-80
2021/07/28 07:32:00;;;;;;;9.98;5.45;;;;;;;;;;5053036;28;20048;-80
2021/07/28 07:34:26;;;;;;;6.80;4.55;;;;;;;;;;5053003;28;20037;-80
2021/07/28 07:36:53;;;;;;;7.97;4.03;;;;;;;;;;5053103;28;20045;-80
2021/07/28 07:39:19;;;;;;;7.50;5.47;;;;;;;;;;5053071;28;20045;-80
2021/07/28 07:41:47;;;;;;;10.55;6.50;;;;;;;;;;5052799;28;20091;-80
2021/07/28 07:44:13;;;;;;;11.60;6.10;;;;;;;;;;5051964;28;20118;-79
2021/07/28 07:46:40;;;;;;;13.68;6.30;;;;;;;;;;5052465;28;20048;-80
2021/07/28 07:49:06;;;;;;;15.65;6.47;;;;;;;;;;5052639;28;20451;-80
2021/07/28 07:51:33;;;;;;;13.13;4.85;;;;;;;;;;5052506;28;20489;-80
2021/07/28 07:53:59;;;;;;;7.05;4.90;;;;;;;;;;5052710;28;20056;-79
2021/07/28 07:56:27;;;;;;;7.95;4.72;;;;;;;;;;5049967;28;20041;-78
2021/07/28 07:58:55;;;;;;;16.00;4.03;;;;;;;;;;5051387;28;20103;-80
2021/07/28 08:01:21;;;;;;;5.53;3.50;;;;;;;;;;5051962;28;20103;-80
2021/07/28 08:03:50;;;;;;;12.35;3.72;;;;;;;;;;5052035;28;20045;-80
2021/07/28 08:06:16;;;;;;;6.90;3.10;;;;;;;;;;5051112;28;20242;-79
2021/07/28 08:08:42;;;;;;;8.15;4.28;;;;;;;;;;5051123;28;20135;-80
2021/07/28 08:11:10;;;;;;;10.77;4.65;;;;;;;;;;5051328;28;20045;-80
2021/07/28 08:13:36;;;;;;;14.70;3.30;;;;;;;;;;5050820;28;20045;-79
2021/07/28 08:16:09;;;;;;;16.02;3.97;;;;;;;;;;5049936;28;20107;-80
2021/07/28 08:18:35;;;;;;;13.55;5.47;;;;;;;;;;5051133;28;20099;-80
2021/07/28 08:21:02;;;;;;;8.68;4.20;;;;;;;;;;5050667;28;20107;-80
2021/07/28 08:23:29;;;;;;;7.55;3.38;;;;;;;;;;5050828;28;20080;-81
2021/07/28 08:25:55;;;;;;;12.50;3.95;;;;;;;;;;5051274;28;20056;-80
2021/07/28 08:28:22;;;;;;;6.28;3.58;;;;;;;;;;5050684;28;20107;-80
2021/07/28 08:30:48;;;;;;;4.32;2.10;;;;;;;;;;5049780;28;20440;-80
2021/07/28 08:33:16;;;;;;;9.35;2.20;;;;;;;;;;5051043;28;20451;-80
2021/07/28 08:35:42;;;;;;;10.23;4.10;;;;;;;;;;5050773;28;20098;-80
2021/07/28 08:38:09;;;;;;;8.48;3.97;;;;;;;;;;5048016;28;20103;-79
2021/07/28 08:40:36;;;;;;;3.67;2.67;;;;;;;;;;5050270;28;20098;-81
2021/07/28 08:43:02;;;;;;;6.32;2.28;;;;;;;;;;5050632;28;20099;-81
2021/07/28 08:45:29;;;;;;;5.35;2.20;;;;;;;;;;5049852;28;20079;-80
2021/07/28 08:47:55;;;;;;;20.38;3.75;;;;;;;;;;5050329;28;20048;-80
2021/07/28 08:50:24;;;;;;;4.38;2.70;;;;;;;;;;5050804;28;20056;-80
2021/07/28 08:52:52;;;;;;;12.82;3.95;;;;;;;;;;5051163;28;20052;-79
2021/07/28 08:55:20;;;;;;;4.78;2.35;;;;;;;;;;5050883;28;20052;-80
2021/07/28 08:57:46;;;;;;;5.07;2.38;;;;;;;;;;5051619;28;20049;-80
2021/07/28 09:00:13;;;;;;;6.25;2.72;;;;;;;;;;5051383;28;20115;-79
2021/07/28 09:02:40;;;;;;;4.15;3.15;;;;;;;;;;5051221;28;20040;-78
2021/07/28 09:05:07;;;;;;;7.22;2.65;;;;;;;;;;5051201;28;20600;-79
2021/07/28 09:07:39;;;;;;;3.47;1.83;;;;;;;;;;5051216;28;20114;-80
2021/07/28 09:10:06;;;;;;;11.52;3.95;;;;;;;;;;5051111;28;20055;-79
2021/07/28 09:12:33;;;;;;;9.32;2.58;;;;;;;;;;5051038;28;20090;-80
2021/07/28 09:15:03;;;;;;;6.20;2.88;;;;;;;;;;5051173;28;20468;-78
2021/07/28 09:17:30;;;;;;;5.53;2.35;;;;;;;;;;5051020;28;20132;-80
2021/07/28 09:19:57;;;;;;;3.03;1.70;;;;;;;;;;5050854;28;20049;-79
2021/07/28 09:22:25;;;;;;;2.85;1.77;;;;;;;;;;5050768;28;20095;-79
2021/07/28 09:25:07;;;;;;;6.72;2.28;;;;;;;;;;5050734;28;20497;-79
2021/07/28 09:27:41;;;;;;;2.63;1.48;;;;;;;;;;5048415;28;20052;-79
2021/07/28 09:30:08;;;;;;;4.20;1.63;;;;;;;;;;5050767;28;20041;-79
2021/07/28 09:32:37;;;;;;;11.15;3.28;;;;;;;;;;5051328;28;20095;-79
2021/07/28 09:35:04;;;;;;;3.92;2.00;;;;;;;;;;5050740;28;20059;-80
2021/07/28 09:37:38;;;;;;;3.78;2.13;;;;;;;;;;5050843;28;20056;-78
2021/07/28 09:40:06;;;;;;;5.32;2.58;;;;;;;;;;5050417;28;20053;-80
2021/07/28 09:42:33;;;;;;;4.50;2.47;;;;;;;;;;5050923;28;20065;-79
2021/07/28 09:45:00;;;;;;;13.80;2.95;;;;;;;;;;5050556;28;20049;-81
2021/07/28 09:47:27;;;;;;;7.20;3.30;;;;;;;;;;5050469;28;20049;-79
2021/07/28 09:50:09;;;;;;;4.07;2.55;;;;;;;;;;5050578;28;20440;-80
2021/07/28 09:52:35;;;;;;;7.20;2.63;;;;;;;;;;5050162;28;20049;-80
2021/07/28 09:55:20;;;;;;;6.05;2.88;;;;;;;;;;5047619;28;20063;-81
2021/07/28 09:57:47;;;;;;;4.03;2.85;;;;;;;;;;5050553;28;20512;-80
2021/07/28 10:00:16;;;;;;;6.53;2.67;;;;;;;;;;5050723;28;20045;-79
2021/07/28 10:02:44;;;;;;;4.80;2.65;;;;;;;;;;5050576;28;20052;-80
2021/07/28 10:05:11;;;;;;;3.92;2.88;;;;;;;;;;5050462;28;20079;-79
2021/07/28 10:07:38;;;;;;;5.30;2.92;;;;;;;;;;5050924;28;20048;-80
2021/07/28 10:10:07;;;;;;;4.00;2.00;;;;;;;;;;5050331;28;20049;-80
2021/07/28 10:12:35;;;;;;;3.38;1.98;;;;;;;;;;5050649;28;20139;-79
2021/07/28 10:15:02;;;;;;;8.23;2.75;;;;;;;;;;5050360;28;20087;-79
2021/07/28 10:17:30;;;;;;;4.72;2.53;;;;;;;;;;5050361;28;20049;-80
2021/07/28 10:19:57;;;;;;;5.82;2.63;;;;;;;;;;5050438;28;20118;-80
2021/07/28 10:22:24;;;;;;;14.57;2.97;;;;;;;;;;5050367;28;20041;-79
2021/07/28 10:24:51;;;;;;;5.13;3.08;;;;;;;;;;5050141;28;20076;-79
2021/07/28 10:27:17;;;;;;;7.82;2.40;;;;;;;;;;5050204;28;20056;-79
2021/07/28 10:29:44;;;;;;;3.90;2.45;;;;;;;;;;5046097;28;20481;-79
2021/07/28 10:32:27;;;;;;;3.85;1.88;;;;;;;;;;5050017;28;20091;-80
2021/07/28 10:35:15;;;;;;;6.43;2.35;;;;;;;;;;5049997;28;20091;-81
2021/07/28 10:37:42;;;;;;;7.30;3.05;;;;;;;;;;5049830;28;20068;-80
2021/07/28 10:40:31;;;;;;;3.70;2.58;;;;;;;;;;5050092;28;20451;-79
2021/07/28 10:43:04;;;;;;;3.10;1.60;;;;;;;;;;5049998;28;20053;-80
2021/07/28 10:46:01;;;;;;;5.07;2.67;;;;;;;;;;5050093;28;20063;-80
2021/07/28 10:48:46;;;;;;;7.53;3.53;;;;;;;;;;4988521;28;20509;-79
2021/07/28 10:51:36;;;;;;;6.05;2.17;;;;;;;;;;5025467;28;20053;-78
2021/07/28 10:54:02;;;;;;;5.57;2.15;;;;;;;;;;5033423;28;20046;-80
2021/07/28 10:56:29;;;;;;;6.35;1.63;;;;;;;;;;5033652;28;20049;-79
2021/07/28 10:58:55;;;;;;;4.97;1.38;;;;;;;;;;5033647;28;20057;-79
2021/07/28 11:01:38;;;;;;;1.95;1.50;;;;;;;;;;5033610;28;20057;-81
2021/07/28 11:04:19;;;;;;;4.20;1.67;;;;;;;;;;5053160;28;20049;-79
2021/07/28 11:06:48;;;;;;;3.85;1.38;;;;;;;;;;5053199;28;20098;-80
2021/07/28 11:09:18;;;;;;;5.18;2.25;;;;;;;;;;5053505;28;20110;-79
2021/07/28 11:11:46;;;;;;;2.90;1.38;;;;;;;;;;5053559;28;20044;-78
2021/07/28 11:14:14;;;;;;;2.90;1.75;;;;;;;;;;5052971;28;20040;-79
2021/07/28 11:16:41;;;;;;;3.05;1.38;;;;;;;;;;5053677;28;20045;-80
2021/07/28 11:19:07;;;;;;;2.90;1.95;;;;;;;;;;5053088;28;20053;-80
2021/07/28 11:21:34;;;;;;;4.53;1.42;;;;;;;;;;5053137;28;20041;-80
2021/07/28 11:24:02;;;;;;;3.85;2.15;;;;;;;;;;5053206;28;20037;-79
2021/07/28 11:26:30;;;;;;;7.53;2.40;;;;;;;;;;5053138;28;20052;-80
2021/07/28 11:28:57;;;;;;;3.63;1.90;;;;;;;;;;5052985;28;20135;-79
2021/07/28 11:31:24;;;;;;;10.45;3.13;;;;;;;;;;5052981;28;20049;-79
2021/07/28 11:33:50;;;;;;;1.30;0.73;;;;;;;;;;5052912;28;20052;-81
2021/07/28 11:36:17;;;;;;;3.15;1.50;;;;;;;;;;5052851;28;20056;-81
2021/07/28 11:38:44;;;;;;;11.95;2.47;;;;;;;;;;5053018;28;20053;-81
2021/07/28 11:41:12;;;;;;;6.60;2.47;;;;;;;;;;5052720;28;20049;-81
2021/07/28 11:43:39;;;;;;;6.10;2.72;;;;;;;;;;5053181;28;20049;-79
2021/07/28 11:46:11;;;;;;;5.55;1.88;;;;;;;;;;5052460;28;20111;-80
2021/07/28 11:48:38;;;;;;;5.72;2.00;;;;;;;;;;5052772;28;20044;-81
2021/07/28 11:51:05;;;;;;;5.43;1.88;;;;;;;;;;5052556;28;20057;-80
2021/07/28 11:53:32;;;;;;;1.65;1.10;;;;;;;;;;5052748;28;20479;-81
2021/07/28 11:56:06;;;;;;;3.40;2.28;;;;;;;;;;5052581;28;20501;-81
2021/07/28 11:58:34;;;;;;;3.72;2.17;;;;;;;;;;5052300;28;20065;-81
2021/07/28 12:01:16;;;;;;;4.72;2.15;;;;;;;;;;5052595;28;20049;-80
2021/07/28 12:03:47;;;;;;;4.63;2.80;;;;;;;;;;5051929;28;20059;-81
2021/07/28 12:06:13;;;;;;;2.45;1.83;;;;;;;;;;5052391;28;20053;-81
2021/07/28 12:08:40;;;;;;;4.18;2.25;;;;;;;;;;5052327;28;20045;-81
2021/07/28 12:11:07;;;;;;;6.72;1.50;;;;;;;;;;5052198;28;20132;-80
2021/07/28 12:13:45;;;;;;;8.38;2.63;;;;;;;;;;5052410;28;20045;-79
2021/07/28 12:16:11;;;;;;;3.50;2.13;;;;;;;;;;5052256;28;20095;-79
2021/07/28 12:18:41;;;;;;;4.95;1.00;;;;;;;;;;5052160;28;20087;-80
2021/07/28 12:21:08;;;;;;;2.53;1.42;;;;;;;;;;5052219;28;20053;-79
2021/07/28 12:23:35;;;;;;;3.25;2.13;;;;;;;;;;5051913;28;20140;-79
2021/07/28 12:26:01;;;;;;;3.55;1.30;;;;;;;;;;5031884;28;20547;-80
2021/07/28 12:28:42;;;;;;;3.70;1.95;;;;;;;;;;5031958;28;20069;-80
2021/07/28 12:31:10;;;;;;;3.17;1.95;;;;;;;;;;5031360;28;20095;-80
2021/07/28 12:33:37;;;;;;;6.75;2.88;;;;;;;;;;5031935;28;20048;-80
2021/07/28 12:36:04;;;;;;;3.55;2.00;;;;;;;;;;5031752;28;20041;-80
2021/07/28 12:38:31;;;;;;;3.97;1.75;;;;;;;;;;5031708;28;20489;-80
2021/07/28 12:40:59;;;;;;;2.95;2.00;;;;;;;;;;5031625;28;20509;-81
2021/07/28 12:43:26;;;;;;;5.05;1.92;;;;;;;;;;5031665;28;20581;-81
2021/07/28 12:45:54;;;;;;;4.68;1.65;;;;;;;;;;5031618;28;20064;-81
2021/07/28 12:48:22;;;;;;;2.97;1.67;;;;;;;;;;5031744;28;20136;-80
2021/07/28 12:50:49;;;;;;;2.13;1.02;;;;;;;;;;5031463;28;20061;-81
2021/07/28 12:53:15;;;;;;;3.05;1.60;;;;;;;;;;5031741;28;20080;-81
2021/07/28 12:55:42;;;;;;;5.03;3.10;;;;;;;;;;5031442;28;20065;-81
2021/07/28 12:58:08;;;;;;;2.08;1.15;;;;;;;;;;5031604;28;20049;-81
2021/07/28 13:00:35;;;;;;;3.75;1.63;;;;;;;;;;5031338;28;20048;-79
2021/07/28 13:03:03;;;;;;;2.80;1.20;;;;;;;;;;5031356;28;20049;-81
2021/07/28 13:05:31;;;;;;;5.72;2.72;;;;;;;;;;5031197;28;20049;-81
2021/07/28 13:08:03;;;;;;;7.75;1.83;;;;;;;;;;5031364;28;20053;-81
2021/07/28 13:10:30;;;;;;;5.57;1.75;;;;;;;;;;5031337;28;20482;-81
2021/07/28 13:12:56;;;;;;;5.97;1.13;;;;;;;;;;5031232;28;20103;-81
2021/07/28 13:15:23;;;;;;;3.97;1.20;;;;;;;;;;5030369;28;20049;-81
2021/07/28 13:17:50;;;;;;;3.42;2.38;;;;;;;;;;5030946;28;20493;-81
2021/07/28 13:20:16;;;;;;;3.67;1.25;;;;;;;;;;5042684;28;20045;-81
2021/07/28 13:22:44;;;;;;;5.03;2.13;;;;;;;;;;5050988;28;20095;-81
2021/07/28 13:25:11;;;;;;;9.70;1.90;;;;;;;;;;5050731;28;20485;-81
2021/07/28 13:27:41;;;;;;;5.57;2.17;;;;;;;;;;5050747;28;20044;-81
2021/07/28 13:33:26;;;;;;;4.07;1.83;;;;;;;;;;5072276;28;20384;-81
2021/07/28 13:35:52;;;;;;;5.32;1.75;;;;;;;;;;5030948;28;20049;-81
2021/07/28 13:38:20;;;;;;;3.20;2.35;;;;;;;;;;5030803;28;20049;-78
2021/07/28 13:40:46;;;;;;;6.43;2.17;;;;;;;;;;5031077;28;20049;-81
2021/07/28 13:43:13;;;;;;;1.88;1.27;;;;;;;;;;5031076;28;20057;-81
2021/07/28 13:45:41;;;;;;;3.55;1.23;;;;;;;;;;5034664;28;20041;-80
2021/07/28 13:48:09;;;;;;;2.45;1.25;;;;;;;;;;5050824;28;20053;-81
2021/07/28 13:50:35;;;;;;;2.80;1.73;;;;;;;;;;5050677;28;20448;-80
2021/07/28 13:53:02;;;;;;;2.58;1.25;;;;;;;;;;5050177;28;20049;-80
2021/07/28 13:55:30;;;;;;;4.03;1.35;;;;;;;;;;5050125;28;20053;-81
2021/07/28 13:57:56;;;;;;;5.15;1.85;;;;;;;;;;5050718;28;20045;-80
2021/07/28 14:00:23;;;;;;;7.20;1.55;;;;;;;;;;5050800;28;20170;-80
2021/07/28 14:02:49;;;;;;;3.70;2.42;;;;;;;;;;5050477;28;20052;-81
2021/07/28 14:05:16;;;;;;;3.13;0.77;;;;;;;;;;5050520;28;20543;-80
2021/07/28 14:07:43;;;;;;;2.75;1.17;;;;;;;;;;5050335;28;20052;-80
2021/07/28 14:10:10;;;;;;;3.50;1.88;;;;;;;;;;5050313;28;20501;-80
2021/07/28 14:12:39;;;;;;;2.33;1.08;;;;;;;;;;5050374;28;20045;-78
2021/07/28 14:15:06;;;;;;;2.85;1.33;;;;;;;;;;5050340;28;20095;-79
2021/07/28 14:17:33;;;;;;;4.00;1.73;;;;;;;;;;5050457;28;20052;-79
2021/07/28 14:19:59;;;;;;;5.30;1.60;;;;;;;;;;5050410;28;20489;-78
2021/07/28 14:22:26;;;;;;;2.92;1.50;;;;;;;;;;5050198;28;20114;-80
2021/07/28 14:24:52;;;;;;;4.60;1.65;;;;;;;;;;5050490;28;20053;-79
2021/07/28 14:27:19;;;;;;;6.80;2.70;;;;;;;;;;5053468;28;20053;-80
2021/07/28 14:29:47;;;;;;;4.30;1.33;;;;;;;;;;5054265;28;20389;-80
2021/07/28 14:32:13;;;;;;;1.77;1.30;;;;;;;;;;5054180;28;20102;-81
2021/07/28 14:34:40;;;;;;;4.53;1.73;;;;;;;;;;5054007;28;20052;-80
2021/07/28 14:37:08;;;;;;;3.35;1.30;;;;;;;;;;5053931;28;20053;-80
2021/07/28 14:39:35;;;;;;;5.20;2.08;;;;;;;;;;5054269;28;20048;-80
2021/07/28 14:42:01;;;;;;;7.40;2.05;;;;;;;;;;5054063;28;20053;-80
2021/07/28 14:44:28;;;;;;;7.10;2.67;;;;;;;;;;5053853;28;20053;-80
2021/07/28 14:46:56;;;;;;;6.57;1.83;;;;;;;;;;5053874;28;20111;-79
2021/07/28 14:49:22;;;;;;;3.85;1.80;;;;;;;;;;5053684;28;20044;-79